NMSU Main Campus

2021-03-02 07:25:00

  • imperial
Date Time Air Temperature Relative Humidity Dewpoint Heat Index Wind Speed Wind Dir. Rain Solar Radiation Soil Temperature
2m 2m 3m 3m 10cm
US/Mountain F % F F MPH deg in MJ/m^2 F
max avg avg
2021-03-01 07:30:00 40.7 49.6 23.3 40.7 4.0 8.7 4.9 10.4 22.6 0.00 0.0383361 49.5
2021-03-01 07:35:00 41.2 47.8 22.8 41.2 5.6 8.7 4.5 7.6 18.6 0.00 0.0432318 49.4
2021-03-01 07:40:00 41.5 46.5 22.5 41.5 5.6 6.3 4.1 16.3 4.1 0.00 0.0474024 49.4
2021-03-01 07:45:00 41.6 45.9 22.2 41.6 4.9 7.2 4.6 67.6 25.9 0.00 0.0498327 49.4
2021-03-01 07:50:00 42.3 45.4 22.7 42.3 1.9 6.0 4.1 19.0 32.6 0.00 0.0585637 49.3
2021-03-01 07:55:00 42.6 44.6 22.5 42.6 4.2 7.1 4.8 8.1 36.3 0.00 0.0650810 49.3
2021-03-01 08:00:00 43.0 42.3 21.6 43.0 7.8 7.8 5.0 6.2 33.1 0.00 0.0701381 49.3
2021-03-01 08:05:00 43.8 40.5 21.3 43.8 4.0 7.4 5.1 26.1 35.3 0.00 0.0755941 49.3
2021-03-01 08:10:00 44.1 40.4 21.6 44.1 6.3 8.5 6.0 53.7 25.9 0.00 0.0811585 49.2
2021-03-01 08:15:00 44.1 42.7 22.8 44.1 5.5 8.8 5.4 307.2 10.9 0.00 0.0864784 49.2
2021-03-01 08:20:00 44.0 40.7 21.6 44.0 8.5 8.8 5.5 9.9 17.3 0.00 0.0914414 49.2
2021-03-01 08:25:00 43.9 39.1 20.6 43.9 8.7 9.6 6.6 21.7 13.6 0.00 0.0966648 49.2
2021-03-01 08:30:00 44.3 38.7 20.7 44.3 6.2 9.7 6.1 27.5 11.6 0.00 0.1018609 49.2
2021-03-01 08:35:00 44.4 38.7 20.8 44.4 5.5 8.1 5.7 24.2 23.0 0.00 0.1067891 49.2
2021-03-01 08:40:00 45.6 36.9 20.8 45.6 7.4 7.4 4.2 11.4 20.3 0.00 0.1120644 49.1
2021-03-01 08:45:00 45.4 36.4 20.3 45.4 6.0 7.4 5.2 7.9 355.8 0.00 0.1172921 49.1
2021-03-01 08:50:00 45.8 34.7 19.5 45.8 6.7 7.6 5.2 35.8 18.5 0.00 0.1226285 49.1
2021-03-01 08:55:00 45.6 35.1 19.6 45.6 3.3 7.8 5.6 36.6 29.9 0.00 0.1275226 49.1
2021-03-01 09:00:00 46.0 34.1 19.3 46.0 4.4 7.6 5.6 21.7 9.6 0.00 0.1322464 49.2
2021-03-01 09:05:00 46.8 33.2 19.4 46.8 4.9 6.5 4.2 20.3 27.3 0.00 0.1369867 49.2
2021-03-01 09:10:00 47.4 33.1 19.8 47.4 1.7 6.3 3.6 310.3 7.8 0.00 0.1416627 49.2
2021-03-01 09:15:00 47.6 32.3 19.4 47.6 3.3 7.4 3.8 34.7 18.1 0.00 0.1462716 49.2
2021-03-01 09:20:00 47.9 31.8 19.3 47.9 2.2 5.3 3.3 311.8 7.2 0.00 0.1512586 49.2
2021-03-01 09:25:00 47.9 31.3 18.9 47.9 6.0 6.7 3.9 13.5 359.0 0.00 0.1559426 49.2
2021-03-01 09:30:00 48.1 30.8 18.8 48.1 5.3 5.3 3.2 338.1 20.1 0.00 0.1604150 49.3
2021-03-01 09:35:00 48.6 30.8 19.2 48.6 0.0 9.0 4.0 281.5 337.9 0.00 0.1646788 49.3
2021-03-01 09:40:00 49.0 30.4 19.1 49.0 1.7 4.2 2.4 281.5 301.4 0.00 0.1688795 49.3
2021-03-01 09:45:00 48.9 30.8 19.4 48.9 4.7 7.1 4.1 316.1 341.6 0.00 0.1730908 49.4
2021-03-01 09:50:00 48.7 29.7 18.4 48.7 3.0 7.1 3.0 332.4 348.4 0.00 0.1773557 49.4
2021-03-01 09:55:00 48.9 29.2 18.2 48.9 1.2 4.6 2.1 334.4 291.4 0.00 0.1813638 49.5
2021-03-01 10:00:00 49.5 28.7 18.2 49.5 5.1 7.1 2.4 301.0 269.5 0.00 0.1852390 49.6
2021-03-01 10:05:00 50.2 28.2 18.4 50.2 2.1 5.3 1.9 40.7 5.5 0.00 0.1900373 49.6
2021-03-01 10:10:00 50.1 27.8 18.1 50.1 4.7 5.6 4.1 14.8 3.9 0.00 0.1953087 49.7
2021-03-01 10:15:00 49.7 28.3 18.1 49.7 6.0 7.1 4.7 46.4 33.7 0.00 0.2028518 49.8
2021-03-01 10:20:00 48.9 29.1 18.1 48.9 4.0 7.8 4.6 57.9 77.2 0.00 0.0749747 49.8
2021-03-01 10:25:00 48.1 29.3 17.6 48.1 1.3 6.7 2.8 64.5 30.3 0.00 0.0656150 49.9
2021-03-01 10:30:00 49.4 29.9 19.1 49.4 2.4 3.0 0.9 272.0 267.0 0.00 0.2110903 50.0
2021-03-01 10:35:00 50.3 27.5 18.0 50.3 2.4 4.2 3.0 134.4 252.7 0.00 0.2344728 50.1
2021-03-01 10:40:00 51.2 27.1 18.4 51.2 4.6 5.3 2.6 220.2 208.4 0.00 0.2331937 50.2
2021-03-01 10:45:00 51.2 27.1 18.4 51.2 0.0 5.6 2.7 117.1 130.7 0.00 0.2275443 50.3
2021-03-01 10:50:00 52.0 25.9 18.0 52.0 3.1 5.8 2.0 108.4 106.8 0.00 0.2230623 50.4
2021-03-01 10:55:00 51.8 26.4 18.4 51.8 1.3 5.8 3.9 155.6 144.8 0.00 0.2135895 50.5
2021-03-01 11:00:00 51.9 26.0 18.1 51.9 1.0 5.5 2.2 212.9 170.7 0.00 0.2337085 50.6
2021-03-01 11:05:00 52.7 25.8 18.6 52.7 3.3 4.0 2.6 258.1 165.8 0.00 0.2426233 50.7
2021-03-01 11:10:00 52.5 25.5 18.1 52.5 2.2 4.9 3.4 189.2 200.3 0.00 0.2581250 50.8
2021-03-01 11:15:00 52.9 26.3 19.1 52.9 5.1 6.2 3.7 298.4 286.7 0.00 0.2718606 50.9
2021-03-01 11:20:00 52.7 24.3 17.2 52.7 5.8 7.4 2.7 170.9 278.2 0.00 0.2727778 51.0
2021-03-01 11:25:00 53.1 24.5 17.7 53.1 2.2 4.9 2.3 187.3 202.3 0.00 0.2613470 51.1
2021-03-01 11:30:00 52.8 26.0 18.9 52.8 4.2 6.7 3.6 282.0 256.4 0.00 0.2539031 51.3
2021-03-01 11:35:00 52.2 25.5 17.8 52.2 2.2 6.2 3.2 238.4 213.5 0.00 0.2481884 51.4
2021-03-01 11:40:00 52.6 25.1 17.8 52.6 5.3 5.3 3.1 148.2 78.2 0.00 0.2473050 51.5
2021-03-01 11:45:00 52.2 25.8 18.1 52.2 5.5 7.6 4.9 151.7 132.7 0.00 0.2483728 51.7
2021-03-01 11:50:00 52.4 24.8 17.4 52.4 3.0 7.8 4.8 161.3 181.1 0.00 0.2500806 51.8
2021-03-01 11:55:00 52.4 24.7 17.3 52.4 2.6 5.3 2.7 199.0 205.6 0.00 0.2524840 51.9
2021-03-01 12:00:00 52.7 24.6 17.5 52.7 1.9 4.9 1.6 224.9 204.2 0.00 0.2019541 52.1
2021-03-01 12:05:00 52.5 25.0 17.6 52.5 6.7 6.7 4.7 209.1 238.6 0.00 0.1983425 52.2
2021-03-01 12:10:00 52.5 24.7 17.4 52.5 2.6 8.1 4.2 175.8 226.5 0.00 0.2638858 52.4
2021-03-01 12:15:00 53.0 24.2 17.3 53.0 2.1 6.3 3.7 67.7 186.9 0.00 0.2088190 52.5
2021-03-01 12:20:00 54.7 22.8 17.4 54.7 1.0 4.0 1.9 80.3 82.2 0.00 0.2509223 52.7
2021-03-01 12:25:00 54.2 23.3 17.4 54.2 3.7 5.8 2.9 276.4 342.6 0.00 0.2640694 52.8
2021-03-01 12:30:00 53.2 24.3 17.6 53.2 4.6 8.3 5.7 232.5 264.3 0.00 0.2606156 53.0
2021-03-01 12:35:00 53.2 24.3 17.6 53.2 5.5 6.7 3.2 18.7 35.0 0.00 0.1489986 53.2
2021-03-01 12:40:00 52.7 24.2 17.1 52.7 4.2 5.6 3.2 50.4 42.3 0.00 0.2194776 53.3
2021-03-01 12:45:00 53.3 26.8 20.0 53.3 3.3 5.6 3.2 298.1 343.8 0.00 0.2053690 53.5
2021-03-01 12:50:00 53.0 25.9 18.9 53.0 4.9 5.3 3.5 85.9 2.7 0.00 0.0939560 53.7
2021-03-01 12:55:00 53.0 25.3 18.3 53.0 3.0 5.6 2.3 154.7 108.3 0.00 0.2396422 53.8
2021-03-01 13:00:00 54.4 24.3 18.7 54.4 1.5 3.1 1.2 287.4 108.0 0.00 0.2409604 54.0
2021-03-01 13:05:00 54.1 24.3 18.4 54.1 0.8 5.5 3.4 68.0 253.5 0.00 0.2413991 54.1
2021-03-01 13:10:00 53.5 26.8 20.1 53.5 2.4 8.7 4.7 133.3 93.3 0.00 0.2467636 54.2
2021-03-01 13:15:00 54.5 26.6 20.9 54.5 4.4 7.1 4.8 175.8 178.7 0.00 0.2427274 54.4
2021-03-01 13:20:00 55.1 25.1 19.9 55.1 3.8 9.9 4.8 157.8 162.5 0.00 0.2356087 54.5
2021-03-01 13:25:00 54.8 26.6 21.1 54.8 7.4 7.4 4.3 142.4 153.6 0.00 0.2414928 54.6
2021-03-01 13:30:00 55.1 26.3 21.1 55.1 9.0 9.2 4.9 168.7 159.9 0.00 0.2139919 54.8
2021-03-01 13:35:00 54.7 27.0 21.3 54.7 6.5 9.2 5.1 187.4 182.2 0.00 0.2079667 54.9
2021-03-01 13:40:00 54.8 26.3 20.8 54.8 8.1 10.8 6.4 141.5 199.1 0.00 0.2412065 55.0
2021-03-01 13:45:00 55.0 27.2 21.8 55.0 3.5 8.1 3.8 245.9 148.0 0.00 0.2329371 55.1
2021-03-01 13:50:00 55.7 25.9 21.2 55.7 5.3 9.0 3.6 230.7 197.4 0.00 0.2390608 55.2
2021-03-01 13:55:00 55.4 26.3 21.3 55.4 5.1 9.7 5.3 165.1 195.4 0.00 0.1891869 55.3
2021-03-01 14:00:00 55.1 26.2 21.0 55.1 3.1 7.1 4.5 206.8 153.9 0.00 0.2364230 55.5
2021-03-01 14:05:00 56.0 24.3 20.0 56.0 6.2 7.6 4.6 153.6 174.0 0.00 0.2180953 55.5
2021-03-01 14:10:00 55.3 25.3 20.4 55.3 9.7 9.7 4.9 227.8 174.6 0.00 0.2099832 55.7
2021-03-01 14:15:00 55.4 25.2 20.3 55.4 3.5 10.1 6.1 93.8 188.1 0.00 0.2128633 55.8
2021-03-01 14:20:00 56.5 23.5 19.6 56.5 7.6 8.0 4.4 168.2 177.9 0.00 0.2107782 55.9
2021-03-01 14:25:00 55.9 24.5 20.1 55.9 4.9 10.5 6.1 203.0 206.7 0.00 0.2059723 56.0
2021-03-01 14:30:00 55.5 24.2 19.5 55.5 8.0 9.9 6.4 244.2 227.3 0.00 0.1941105 56.1
2021-03-01 14:35:00 56.4 24.2 20.2 56.4 5.3 12.2 7.0 128.2 229.3 0.00 0.2020630 56.2
2021-03-01 14:40:00 55.6 23.5 18.8 55.6 1.9 7.1 4.0 217.8 154.2 0.00 0.1937693 56.3
2021-03-01 14:45:00 55.7 23.1 18.6 55.7 1.0 7.6 3.2 114.2 145.4 0.00 0.1898909 56.4
2021-03-01 14:50:00 55.9 22.8 18.4 55.9 1.2 6.7 2.9 268.9 132.7 0.00 0.1852428 56.5
2021-03-01 14:55:00 56.2 22.7 18.5 56.2 9.6 9.6 4.2 205.6 207.1 0.00 0.1808697 56.6
2021-03-01 15:00:00 55.8 22.8 18.3 55.8 3.7 8.7 5.9 205.5 213.8 0.00 0.1799066 56.7
2021-03-01 15:05:00 56.0 22.0 17.7 56.0 5.8 8.3 4.7 180.7 183.0 0.00 0.1772542 56.8
2021-03-01 15:10:00 55.9 22.6 18.2 55.9 3.5 7.1 4.1 264.1 204.7 0.00 0.1714242 56.8
2021-03-01 15:15:00 56.3 22.3 18.2 56.3 4.9 7.8 4.5 225.6 203.9 0.00 0.1657854 56.9
2021-03-01 15:20:00 56.5 21.4 17.4 56.5 3.5 8.5 3.7 146.3 167.4 0.00 0.1611408 57.0
2021-03-01 15:25:00 56.4 23.0 19.0 56.4 2.4 4.2 2.9 181.3 160.7 0.00 0.1560049 57.1
2021-03-01 15:30:00 56.4 22.2 18.2 56.4 5.1 5.1 2.2 189.4 183.4 0.00 0.1520046 57.2
2021-03-01 15:35:00 55.7 21.7 17.1 55.7 1.7 6.7 3.5 200.4 214.2 0.00 0.1472754 57.3
2021-03-01 15:40:00 56.1 21.6 17.3 56.1 2.2 6.9 4.0 259.5 217.9 0.00 0.1427807 57.4
2021-03-01 15:45:00 55.9 21.7 17.2 55.9 5.3 6.0 4.0 234.0 218.9 0.00 0.1375030 57.5
2021-03-01 15:50:00 56.1 21.3 17.0 56.1 4.6 6.5 3.5 121.8 153.2 0.00 0.1319616 57.5
2021-03-01 15:55:00 56.0 21.6 17.2 56.0 3.1 5.6 3.0 132.6 166.7 0.00 0.1270063 57.6
2021-03-01 16:00:00 57.1 20.2 16.6 57.1 4.7 4.7 1.3 224.2 206.6 0.00 0.1225289 57.7
2021-03-01 16:05:00 56.2 20.8 16.6 56.2 5.1 6.5 3.9 208.3 230.0 0.00 0.1178092 57.8
2021-03-01 16:10:00 55.7 20.8 16.1 55.7 4.7 6.7 4.1 208.6 238.6 0.00 0.1119736 57.9
2021-03-01 16:15:00 56.1 20.5 16.1 56.1 5.3 5.8 3.2 199.3 239.4 0.00 0.1068680 58.0
2021-03-01 16:20:00 55.9 20.8 16.3 55.9 2.6 8.1 3.8 239.8 235.6 0.00 0.1017138 58.0
2021-03-01 16:25:00 55.6 21.1 16.3 55.6 3.1 5.3 4.0 244.0 253.0 0.00 0.0995089 58.1
2021-03-01 16:30:00 55.9 20.6 16.1 55.9 4.9 8.1 4.8 216.8 244.1 0.00 0.0445262 58.2
2021-03-01 16:35:00 55.9 20.7 16.1 55.9 2.8 7.1 4.0 225.2 202.6 0.00 0.0854822 58.2
2021-03-01 16:40:00 56.3 20.3 16.0 56.3 0.8 3.5 1.5 54.8 225.7 0.00 0.0804644 58.3
2021-03-01 16:45:00 55.9 20.2 15.6 55.9 0.0 6.2 2.2 149.4 130.7 0.00 0.0752490 58.4
2021-03-01 16:50:00 56.8 20.3 16.4 56.8 4.0 6.7 2.9 185.0 204.4 0.00 0.0701421 58.4
2021-03-01 16:55:00 56.1 20.6 16.2 56.1 2.1 4.9 2.6 115.0 163.9 0.00 0.0648162 58.4
2021-03-01 17:00:00 55.5 20.9 16.0 55.5 2.1 5.6 3.1 126.3 143.1 0.00 0.0593466 58.5
2021-03-01 17:05:00 56.1 20.1 15.6 56.1 1.9 4.2 1.4 209.6 190.8 0.00 0.0540032 58.5
2021-03-01 17:10:00 55.6 21.5 16.8 55.6 2.8 6.5 2.8 135.0 147.9 0.00 0.0489512 58.6
2021-03-01 17:15:00 54.9 21.4 16.1 54.9 2.2 6.9 3.4 128.8 142.3 0.00 0.0441238 58.6
2021-03-01 17:20:00 54.9 21.5 16.2 54.9 3.7 4.2 2.0 114.4 142.7 0.00 0.0396000 58.6
2021-03-01 17:25:00 54.9 21.2 15.9 54.9 3.8 4.4 1.8 143.9 149.4 0.00 0.0346781 58.6
2021-03-01 17:30:00 54.8 22.1 16.7 54.8 2.8 4.0 1.9 187.7 171.9 0.00 0.0288955 58.7
2021-03-01 17:35:00 54.2 21.8 16.0 54.2 1.2 4.7 2.4 135.4 140.9 0.00 0.0229035 58.7
2021-03-01 17:40:00 53.8 22.8 16.6 53.8 2.1 4.2 2.3 143.5 147.7 0.00 0.0172878 58.7
2021-03-01 17:45:00 54.1 23.1 17.1 54.1 1.0 3.0 1.4 174.4 183.1 0.00 0.0123091 58.7
2021-03-01 17:50:00 53.5 22.9 16.5 53.5 0.0 4.2 1.9 112.3 158.6 0.00 0.0082692 58.7
2021-03-01 17:55:00 52.9 23.6 16.6 52.9 0.8 3.7 1.7 131.6 136.2 0.00 0.0051719 58.7
2021-03-01 18:00:00 52.5 25.3 18.0 52.5 2.4 5.1 1.5 197.3 145.8 0.00 0.0030212 58.7
2021-03-01 18:05:00 52.1 24.4 16.7 52.1 2.6 3.5 1.5 166.1 139.1 0.00 0.0019640 58.7
2021-03-01 18:10:00 51.7 24.9 16.9 51.7 0.8 3.7 1.6 135.7 137.5 0.00 0.0011016 58.7
2021-03-01 18:15:00 51.5 25.2 17.0 51.5 1.9 4.0 1.9 169.7 137.5 0.00 0.0005850 58.7
2021-03-01 18:20:00 51.5 25.9 17.6 51.5 2.1 3.0 1.4 166.7 135.0 0.00 0.0002996 58.6
2021-03-01 18:25:00 51.1 26.2 17.5 51.1 1.3 3.5 1.7 118.9 132.1 0.00 0.0001166 58.6
2021-03-01 18:30:00 50.8 26.8 17.7 50.8 0.0 2.6 1.2 144.5 139.3 0.00 0.0000362 58.6
2021-03-01 18:35:00 50.5 27.4 18.0 50.5 1.5 2.8 1.6 114.3 130.5 0.00 0.0000000 58.6
2021-03-01 18:40:00 50.2 27.8 18.1 50.2 1.7 3.0 0.8 126.8 130.9 0.00 0.0000000 58.5
2021-03-01 18:45:00 50.2 27.8 18.1 50.2 3.0 3.3 1.3 108.3 130.7 0.00 0.0000020 58.5
2021-03-01 18:50:00 50.0 28.1 18.2 50.0 1.2 3.0 1.1 129.3 137.7 0.00 0.0000020 58.4
2021-03-01 18:55:00 49.7 28.3 18.1 49.7 2.8 2.8 1.5 144.6 135.3 0.00 0.0000000 58.4
2021-03-01 19:00:00 49.5 28.8 18.4 49.5 0.8 2.4 1.3 148.9 135.4 0.00 0.0000000 58.3
2021-03-01 19:05:00 49.4 29.2 18.6 49.4 1.5 1.9 0.7 112.8 132.6 0.00 0.0000000 58.3
2021-03-01 19:10:00 49.1 29.2 18.3 49.1 0.0 3.1 1.4 123.2 135.8 0.00 0.0000040 58.2
2021-03-01 19:15:00 48.9 29.2 18.1 48.9 0.0 2.8 1.0 124.5 130.1 0.00 0.0000000 58.1
2021-03-01 19:20:00 49.0 29.3 18.3 49.0 2.2 2.8 0.9 111.5 121.1 0.00 0.0000000 58.1
2021-03-01 19:25:00 48.7 29.5 18.2 48.7 0.8 2.4 1.2 144.9 133.8 0.00 0.0000040 58.0
2021-03-01 19:30:00 48.6 29.2 17.9 48.6 3.5 4.7 2.0 109.5 121.1 0.00 0.0000040 57.9
2021-03-01 19:35:00 48.5 29.1 17.8 48.5 4.4 4.7 2.8 94.2 117.5 0.00 0.0000020 57.9
2021-03-01 19:40:00 48.3 29.4 17.8 48.3 3.3 5.5 4.0 109.8 115.6 0.00 0.0000000 57.8
2021-03-01 19:45:00 48.2 29.5 17.8 48.2 3.5 6.7 3.9 149.8 123.0 0.00 0.0000000 57.7
2021-03-01 19:50:00 48.2 29.5 17.8 48.2 2.6 5.5 3.3 117.9 120.7 0.00 0.0000000 57.6
2021-03-01 19:55:00 48.0 28.9 17.1 48.0 2.4 8.0 4.2 115.0 123.2 0.00 0.0000000 57.6
2021-03-01 20:00:00 48.1 28.5 16.9 48.1 6.5 7.1 4.4 121.5 122.3 0.00 0.0000020 57.5
2021-03-01 20:05:00 48.0 28.8 17.0 48.0 4.0 8.7 5.5 108.4 117.3 0.00 0.0000000 57.4
2021-03-01 20:10:00 47.8 28.3 16.5 47.8 3.8 9.9 6.2 98.2 118.7 0.00 0.0000000 57.3
2021-03-01 20:15:00 47.6 28.1 16.2 47.6 5.6 7.2 4.9 115.0 123.8 0.00 0.0000020 57.3
2021-03-01 20:20:00 47.6 28.2 16.2 47.6 4.2 9.4 4.9 187.7 121.4 0.00 0.0000000 57.2
2021-03-01 20:25:00 47.4 28.3 16.2 47.4 4.0 8.1 4.3 152.5 120.3 0.00 0.0000000 57.1
2021-03-01 20:30:00 47.0 28.2 15.7 47.0 4.9 6.2 4.1 131.0 133.1 0.00 0.0000000 57.0
2021-03-01 20:35:00 46.8 28.4 15.7 46.8 3.1 5.8 3.8 93.5 136.1 0.00 0.0000040 57.0
2021-03-01 20:40:00 46.6 29.1 16.1 46.6 3.7 6.2 3.7 129.2 138.0 0.00 0.0000000 56.9
2021-03-01 20:45:00 46.5 29.6 16.4 46.5 4.7 7.4 4.3 127.6 122.4 0.00 0.0000060 56.8
2021-03-01 20:50:00 46.7 30.3 17.1 46.7 2.4 6.0 3.3 149.4 128.4 0.00 0.0000040 56.7
2021-03-01 20:55:00 46.5 31.2 17.5 46.5 2.6 5.5 3.4 130.5 134.7 0.00 0.0000020 56.6
2021-03-01 21:00:00 46.2 32.2 18.1 46.2 4.9 4.9 2.6 119.5 134.4 0.00 0.0000020 56.6
2021-03-01 21:05:00 45.9 33.2 18.5 45.9 3.0 7.1 3.4 140.0 127.4 0.00 0.0000040 56.5
2021-03-01 21:10:00 46.0 34.0 19.2 46.0 4.2 5.5 3.6 134.7 131.8 0.00 0.0000020 56.4
2021-03-01 21:15:00 46.0 34.8 19.7 46.0 3.8 6.2 4.1 110.4 129.7 0.00 0.0000040 56.3
2021-03-01 21:20:00 45.7 36.1 20.3 45.7 2.2 7.8 4.6 163.5 128.8 0.00 0.0000000 56.3
2021-03-01 21:25:00 45.5 37.0 20.7 45.5 3.1 4.9 3.1 119.1 133.9 0.00 0.0000000 56.2
2021-03-01 21:30:00 45.2 37.2 20.6 45.2 3.5 7.2 3.8 152.4 133.4 0.00 0.0000040 56.1
2021-03-01 21:35:00 44.8 38.7 21.1 44.8 3.7 4.2 3.0 122.8 135.9 0.00 0.0000000 56.0
2021-03-01 21:40:00 44.8 39.1 21.4 44.8 1.0 5.8 3.7 118.2 137.3 0.00 0.0000000 56.0
2021-03-01 21:45:00 44.4 40.1 21.6 44.4 3.7 4.4 3.0 132.3 131.6 0.00 0.0000020 55.9
2021-03-01 21:50:00 44.2 40.2 21.5 44.2 2.8 5.8 3.6 106.0 133.5 0.00 0.0000020 55.8
2021-03-01 21:55:00 43.9 41.0 21.7 43.9 4.0 8.5 4.5 141.6 128.9 0.00 0.0000060 55.7
2021-03-01 22:00:00 43.8 41.8 22.1 43.8 2.2 5.3 3.5 129.9 136.0 0.00 0.0000040 55.7
2021-03-01 22:05:00 43.6 42.6 22.3 43.6 1.7 6.0 3.2 138.1 140.3 0.00 0.0000020 55.6
2021-03-01 22:10:00 43.6 42.7 22.4 43.6 1.3 5.3 2.9 142.8 138.6 0.00 0.0000000 55.5
2021-03-01 22:15:00 43.5 43.5 22.7 43.5 1.7 3.8 1.9 132.7 143.1 0.00 0.0000060 55.5
2021-03-01 22:20:00 43.1 44.1 22.7 43.1 0.0 1.5 0.4 142.5 129.2 0.00 0.0000040 55.4
2021-03-01 22:25:00 42.3 45.4 22.7 42.3 0.0 0.8 0.0 196.8 172.4 0.00 0.0000121 55.3
2021-03-01 22:30:00 41.9 46.2 22.7 41.9 0.0 0.0 0.0 127.6 0.0 0.00 0.0000121 55.2
2021-03-01 22:35:00 41.5 46.9 22.7 41.5 0.0 0.8 0.1 171.8 162.6 0.00 0.0000181 55.2
2021-03-01 22:40:00 41.8 47.0 23.0 41.8 0.0 3.0 0.7 177.0 159.4 0.00 0.0000282 55.1
2021-03-01 22:45:00 41.5 46.7 22.6 41.5 0.0 0.0 0.0 207.7 0.0 0.00 0.0000040 55.0
2021-03-01 22:50:00 41.4 47.8 23.0 41.4 0.0 2.1 0.2 208.1 179.1 0.00 0.0000060 55.0
2021-03-01 22:55:00 41.2 46.4 22.2 41.2 1.5 1.9 0.4 237.7 212.5 0.00 0.0000040 54.9
2021-03-01 23:00:00 40.6 47.5 22.2 40.6 0.0 2.4 0.7 209.7 230.1 0.00 0.0000040 54.8
2021-03-01 23:05:00 40.4 48.2 22.3 40.4 0.0 1.0 0.1 218.6 225.4 0.00 0.0000000 54.8
2021-03-01 23:10:00 40.2 48.4 22.2 40.2 0.0 0.0 0.0 198.8 0.0 0.00 0.0000020 54.7
2021-03-01 23:15:00 39.8 48.6 22.0 39.8 0.0 1.5 0.2 204.6 233.2 0.00 0.0000080 54.6
2021-03-01 23:20:00 39.5 48.6 21.7 39.5 1.0 1.2 0.2 228.0 216.1 0.00 0.0000101 54.5
2021-03-01 23:25:00 39.3 48.4 21.4 39.3 0.0 1.7 0.5 207.3 221.9 0.00 0.0000040 54.5
2021-03-01 23:30:00 38.9 48.6 21.1 38.9 0.0 0.0 0.0 147.7 0.0 0.00 0.0000060 54.4
2021-03-01 23:35:00 38.3 49.6 21.1 38.3 0.0 0.0 0.0 204.3 0.0 0.00 0.0000161 54.4
2021-03-01 23:40:00 37.9 50.1 21.0 37.9 0.0 0.0 0.0 223.0 0.0 0.00 0.0000201 54.3
2021-03-01 23:45:00 37.7 50.6 21.0 37.7 0.0 0.0 0.0 146.8 0.0 0.00 0.0000221 54.2
2021-03-01 23:50:00 37.1 51.7 21.0 37.1 0.0 0.0 0.0 150.7 0.0 0.00 0.0000342 54.1
2021-03-01 23:55:00 36.8 51.9 20.8 36.8 0.0 0.0 0.0 181.3 0.0 0.00 0.0000181 54.1
2021-03-02 00:00:00 35.9 52.4 20.2 35.9 0.0 0.0 0.0 152.4 0.0 0.00 0.0000181 54.0
2021-03-02 00:05:00 35.8 52.2 19.9 35.8 0.0 0.0 0.0 106.8 0.0 0.00 0.0000342 53.9
2021-03-02 00:10:00 36.2 52.0 20.3 36.2 0.0 0.0 0.0 73.4 0.0 0.00 0.0000181 53.9
2021-03-02 00:15:00 36.1 52.4 20.3 36.1 0.0 0.0 0.0 73.4 0.0 0.00 0.0000201 53.8
2021-03-02 00:20:00 35.7 53.7 20.5 35.7 0.0 0.0 0.0 73.4 0.0 0.00 0.0000101 53.7
2021-03-02 00:25:00 35.6 54.5 20.8 35.6 0.0 0.0 0.0 73.6 0.0 0.00 0.0000161 53.6
2021-03-02 00:30:00 35.3 53.8 20.2 35.3 0.0 0.0 0.0 73.7 0.0 0.00 0.0000221 53.5
2021-03-02 00:35:00 35.6 54.5 20.8 35.6 0.0 0.0 0.0 300.7 0.0 0.00 0.0000282 53.5
2021-03-02 00:40:00 35.8 53.4 20.5 35.8 0.0 0.0 0.0 194.3 0.0 0.00 0.0000403 53.4
2021-03-02 00:45:00 35.9 52.8 20.3 35.9 0.0 0.0 0.0 153.0 0.0 0.00 0.0000262 53.3
2021-03-02 00:50:00 35.6 53.4 20.4 35.6 0.0 0.0 0.0 252.9 0.0 0.00 0.0000242 53.2
2021-03-02 00:55:00 35.3 53.4 20.1 35.3 0.0 0.0 0.0 171.0 0.0 0.00 0.0000121 53.2
2021-03-02 01:00:00 35.5 53.7 20.3 35.5 0.0 0.0 0.0 106.8 0.0 0.00 0.0000161 53.1
2021-03-02 01:05:00 35.1 54.3 20.2 35.1 0.0 0.0 0.0 170.7 0.0 0.00 0.0000161 53.0
2021-03-02 01:10:00 35.1 53.7 20.0 35.1 0.0 0.0 0.0 243.4 0.0 0.00 0.0000161 52.9
2021-03-02 01:15:00 35.0 53.4 19.8 35.0 0.0 0.0 0.0 225.1 0.0 0.00 0.0000141 52.8
2021-03-02 01:20:00 35.8 53.5 20.6 35.8 0.0 0.0 0.0 187.3 0.0 0.00 0.0000141 52.8
2021-03-02 01:25:00 36.6 52.1 20.7 36.6 1.7 1.7 0.3 182.2 206.9 0.00 0.0000000 52.7
2021-03-02 01:30:00 36.3 52.6 20.6 36.3 2.1 2.4 0.7 219.7 213.0 0.00 0.0000000 52.6
2021-03-02 01:35:00 36.3 53.5 21.1 36.3 1.9 2.1 0.6 224.7 209.2 0.00 0.0000040 52.5
2021-03-02 01:40:00 36.2 54.2 21.2 36.2 3.5 3.5 1.9 218.8 215.8 0.00 0.0000020 52.5
2021-03-02 01:45:00 35.4 56.0 21.2 35.4 0.0 4.4 2.0 129.7 214.7 0.00 0.0000000 52.4
2021-03-02 01:50:00 35.1 57.1 21.4 35.1 0.0 0.0 0.0 170.0 0.0 0.00 0.0000020 52.3
2021-03-02 01:55:00 34.9 57.7 21.5 34.9 0.0 0.0 0.0 118.4 0.0 0.00 0.0000040 52.3
2021-03-02 02:00:00 35.1 56.8 21.3 35.1 0.0 0.0 0.0 137.4 0.0 0.00 0.0000081 52.2
2021-03-02 02:05:00 35.1 56.7 21.2 35.1 0.0 0.0 0.0 69.6 0.0 0.00 0.0000020 52.1
2021-03-02 02:10:00 34.9 56.9 21.1 34.9 0.0 0.0 0.0 56.4 0.0 0.00 0.0000060 52.0
2021-03-02 02:15:00 34.4 57.5 21.0 34.4 0.0 0.0 0.0 13.2 0.0 0.00 0.0000101 52.0
2021-03-02 02:20:00 34.5 56.8 20.8 34.5 0.0 0.0 0.0 5.1 0.0 0.00 0.0000040 51.9
2021-03-02 02:25:00 34.8 57.2 21.1 34.8 0.0 0.0 0.0 328.6 0.0 0.00 0.0000040 51.8
2021-03-02 02:30:00 34.5 58.4 21.4 34.5 0.0 0.0 0.0 338.4 0.0 0.00 0.0000000 51.7
2021-03-02 02:35:00 34.1 58.1 20.9 34.1 0.0 0.0 0.0 146.4 0.0 0.00 0.0000000 51.7
2021-03-02 02:40:00 34.1 58.4 21.1 34.1 0.0 0.0 0.0 103.5 0.0 0.00 0.0000000 51.6
2021-03-02 02:45:00 33.8 59.2 21.1 33.8 0.0 0.0 0.0 205.9 0.0 0.00 0.0000121 51.5
2021-03-02 02:50:00 33.3 60.1 20.9 33.3 0.0 0.0 0.0 61.5 0.0 0.00 0.0000060 51.5
2021-03-02 02:55:00 33.3 60.7 21.2 33.3 0.0 0.0 0.0 281.2 0.0 0.00 0.0000020 51.4
2021-03-02 03:00:00 33.5 60.1 21.1 33.5 1.7 2.1 0.8 1.3 321.2 0.00 0.0000060 51.3
2021-03-02 03:05:00 34.0 58.5 20.9 34.0 0.0 2.2 0.4 44.2 12.5 0.00 0.0000101 51.3
2021-03-02 03:10:00 33.8 58.1 20.6 33.8 0.0 2.6 1.4 25.2 0.2 0.00 0.0000101 51.2
2021-03-02 03:15:00 34.2 56.4 20.3 34.2 2.4 2.6 1.5 33.4 43.0 0.00 0.0000060 51.1
2021-03-02 03:20:00 34.0 55.8 19.9 34.0 0.0 2.2 0.7 34.0 25.8 0.00 0.0000020 51.1
2021-03-02 03:25:00 33.9 57.1 20.3 33.9 1.5 1.5 0.2 332.0 337.9 0.00 0.0000181 51.0
2021-03-02 03:30:00 33.9 56.8 20.2 33.9 0.0 1.5 0.4 287.9 331.5 0.00 0.0000221 50.9
2021-03-02 03:35:00 33.5 57.1 19.9 33.5 0.0 0.0 0.0 25.1 0.0 0.00 0.0000201 50.8
2021-03-02 03:40:00 33.2 58.3 20.1 33.2 0.0 0.0 0.0 2.6 0.0 0.00 0.0000181 50.8
2021-03-02 03:45:00 32.7 58.6 19.8 32.7 0.0 0.0 0.0 142.7 0.0 0.00 0.0000201 50.7
2021-03-02 03:50:00 32.4 60.0 20.0 32.4 0.0 0.0 0.0 163.0 0.0 0.00 0.0000403 50.7
2021-03-02 03:55:00 32.3 60.3 20.0 32.3 0.0 0.0 0.0 109.8 0.0 0.00 0.0000483 50.6
2021-03-02 04:00:00 32.1 59.9 19.8 32.1 0.0 0.0 0.0 219.3 0.0 0.00 0.0000403 50.5
2021-03-02 04:05:00 32.0 60.5 19.9 32.0 0.0 0.0 0.0 250.4 0.0 0.00 0.0000262 50.5
2021-03-02 04:10:00 31.7 61.2 19.9 31.7 0.0 0.0 0.0 250.4 0.0 0.00 0.0000322 50.4
2021-03-02 04:15:00 31.7 61.4 19.9 31.7 0.0 0.0 0.0 131.9 0.0 0.00 0.0000483 50.3
2021-03-02 04:20:00 31.7 61.1 19.8 31.7 0.0 0.0 0.0 193.6 0.0 0.00 0.0000342 50.3
2021-03-02 04:25:00 31.8 60.9 19.9 31.8 0.0 0.0 0.0 188.3 0.0 0.00 0.0000141 50.2
2021-03-02 04:30:00 31.4 63.1 20.3 31.4 0.8 1.5 0.1 3.2 31.6 0.00 0.0000161 50.1
2021-03-02 04:35:00 32.6 59.7 20.1 32.6 0.0 3.1 1.0 36.9 25.9 0.00 0.0000201 50.1
2021-03-02 04:40:00 32.9 60.2 20.6 32.9 1.2 1.2 0.2 35.5 14.2 0.00 0.0000101 50.0
2021-03-02 04:45:00 33.1 59.4 20.5 33.1 0.0 1.5 0.2 13.4 27.5 0.00 0.0000040 50.0
2021-03-02 04:50:00 32.9 59.6 20.4 32.9 0.0 0.0 0.0 1.9 0.0 0.00 0.0000020 49.9
2021-03-02 04:55:00 32.9 60.0 20.5 32.9 0.0 0.0 0.0 339.1 0.0 0.00 0.0000081 49.8
2021-03-02 05:00:00 32.5 61.0 20.5 32.5 0.0 0.0 0.0 312.6 0.0 0.00 0.0000101 49.8
2021-03-02 05:05:00 31.8 62.1 20.3 31.8 0.0 0.0 0.0 198.9 0.0 0.00 0.0000242 49.7
2021-03-02 05:10:00 31.5 61.6 19.9 31.5 0.0 0.0 0.0 211.9 0.0 0.00 0.0000242 49.6
2021-03-02 05:15:00 31.5 61.9 19.9 31.5 0.0 0.0 0.0 251.3 0.0 0.00 0.0000362 49.6
2021-03-02 05:20:00 31.9 61.4 20.2 31.9 0.0 0.0 0.0 90.1 0.0 0.00 0.0000081 49.5
2021-03-02 05:25:00 30.9 61.6 19.3 30.9 1.5 2.2 1.1 206.5 210.9 0.00 0.0000040 49.5
2021-03-02 05:30:00 30.3 63.1 19.2 30.3 0.0 1.5 0.2 243.1 222.1 0.00 0.0000121 49.4
2021-03-02 05:35:00 30.2 64.0 19.5 30.2 0.0 0.8 0.0 182.9 156.7 0.00 0.0000121 49.3
2021-03-02 05:40:00 29.5 65.7 19.5 29.5 0.0 1.5 0.1 103.9 143.0 0.00 0.0000161 49.3
2021-03-02 05:45:00 29.2 67.3 19.7 29.2 0.0 0.0 0.0 162.6 0.0 0.00 0.0000060 49.2
2021-03-02 05:50:00 28.9 68.1 19.7 28.9 0.0 0.0 0.0 339.5 0.0 0.00 0.0000141 49.1
2021-03-02 05:55:00 28.6 68.8 19.7 28.6 0.0 0.0 0.0 91.9 0.0 0.00 0.0000222 49.1
2021-03-02 06:00:00 28.9 68.6 19.9 28.9 0.0 0.8 0.0 324.1 131.0 0.00 0.0000262 49.0
2021-03-02 06:05:00 28.7 68.4 19.7 28.7 0.0 0.0 0.0 167.7 0.0 0.00 0.0000322 49.0
2021-03-02 06:10:00 29.2 68.0 19.9 29.2 0.0 0.0 0.0 8.1 0.0 0.00 0.0000564 48.9
2021-03-02 06:15:00 29.2 67.7 19.9 29.2 0.0 0.0 0.0 308.6 0.0 0.00 0.0000604 48.8
2021-03-02 06:20:00 29.4 67.4 19.9 29.4 0.0 0.0 0.0 247.2 0.0 0.00 0.0001490 48.8
2021-03-02 06:25:00 29.2 66.8 19.5 29.2 0.0 0.0 0.0 220.1 0.0 0.00 0.0003786 48.7
2021-03-02 06:30:00 29.6 65.0 19.3 29.6 0.0 3.0 1.0 212.7 243.4 0.00 0.0007229 48.7
2021-03-02 06:35:00 29.7 64.9 19.4 29.7 0.0 2.1 0.2 112.9 280.3 0.00 0.0012988 48.6
2021-03-02 06:40:00 29.4 65.1 19.1 29.4 0.0 0.0 0.0 194.2 0.0 0.00 0.0019754 48.6
2021-03-02 06:45:00 29.1 65.7 19.0 29.1 0.0 0.0 0.0 143.8 0.0 0.00 0.0026862 48.5
2021-03-02 06:50:00 28.7 66.9 19.1 28.7 0.0 0.0 0.0 139.6 0.0 0.00 0.0035420 48.5
2021-03-02 06:55:00 28.5 67.7 19.2 28.5 0.0 1.3 0.1 147.4 158.4 0.00 0.0059825 48.4
2021-03-02 07:00:00 28.6 68.1 19.4 28.6 0.0 0.0 0.0 177.2 0.0 0.00 0.0062362 48.3
2021-03-02 07:05:00 28.5 67.4 19.1 28.5 0.0 0.0 0.0 64.5 0.0 0.00 0.0107127 48.3
2021-03-02 07:10:00 29.1 66.8 19.4 29.1 0.0 0.0 0.0 342.0 0.0 0.00 0.0242084 48.2
2021-03-02 07:15:00 30.0 63.5 19.1 30.0 0.0 0.0 0.0 332.5 0.0 0.00 0.0314460 48.2
2021-03-02 07:20:00 31.2 59.7 18.9 31.2 1.7 2.1 0.6 0.7 5.3 0.00 0.0369557 48.1
2021-03-02 07:25:00 32.1 57.8 18.9 32.1 0.0 3.1 1.4 4.6 9.5 0.00 0.0419271 48.1

Data is courtesy of the NM Climate Center. DO NOT USE IN LEGAL PROCEEDINGS.